EDLW/DTM METAR and TAF weather

Enter ICAO airport designator
Station Type Date Time Source
EDLW METAR 2020/11/27 14:50 UTC NOAA

EDLW 271450Z 05006KT CAVOK 06/04 Q1019


Station Type Date Time Source
EDLW Decoded METAR 2020/11/27 14:50 UTC NOAA

Dortmund / Wickede, Germany (EDLW) 51-31N 007-37E
Nov 27, 2020 - 09:50 AM EST / 2020.11.27 1450 UTC
Wind: from the NE (050 degrees) at 7 MPH (6 KT):0
Visibility: greater than 7 mile(s):0
Temperature: 42 F (6 C)
Dew Point: 39 F (4 C)
Relative Humidity: 86%
Pressure (altimeter): 30.09 in. Hg (1019 hPa)
ob: EDLW 271450Z 05006KT CAVOK 06/04 Q1019
cycle: 15

Station Type Date Time Source
EDLW TAF 2020/11/27 12:28 UTC NOAA

TAF EDLW 271100Z 2712/2812 VRB03KT CAVOK
TEMPO 2722/2811 4000 BR PROB30
TEMPO 2800/2809 2000 BR
BECMG 2806/2809 07006KT

Example: see airport list